createdAt,value
2019-02-17T00:02:37.054Z,100.00
2019-02-17T00:05:42.234Z,100.00
2019-02-17T00:08:47.432Z,100.00
2019-02-17T00:11:52.608Z,100.00
2019-02-17T00:14:57.808Z,100.00
2019-02-17T00:18:02.935Z,100.00
2019-02-17T00:21:08.130Z,100.00
2019-02-17T00:24:13.343Z,100.00
2019-02-17T00:27:18.496Z,100.00
2019-02-17T00:30:23.671Z,100.00
2019-02-17T00:33:28.830Z,100.00
2019-02-17T00:36:34.021Z,100.00
2019-02-17T00:39:39.201Z,100.00
2019-02-17T00:42:44.590Z,100.00
2019-02-17T00:45:50.819Z,100.00
2019-02-17T00:48:56.032Z,100.00
2019-02-17T00:52:01.146Z,100.00
2019-02-17T00:55:06.464Z,100.00
2019-02-17T00:58:11.691Z,100.00
2019-02-17T01:01:16.869Z,100.00
2019-02-17T01:04:22.006Z,100.00
2019-02-17T01:07:27.106Z,100.00
2019-02-17T01:10:32.248Z,100.00
2019-02-17T01:13:37.414Z,100.00
2019-02-17T01:16:42.581Z,100.00
2019-02-17T01:19:47.783Z,100.00
2019-02-17T01:22:52.900Z,100.00
2019-02-17T01:25:58.094Z,100.00
2019-02-17T01:29:03.211Z,100.00
2019-02-17T01:32:08.462Z,100.00
2019-02-17T01:35:13.945Z,100.00
2019-02-17T01:38:19.182Z,100.00
2019-02-17T01:41:24.403Z,100.00
2019-02-17T01:44:29.528Z,100.00
2019-02-17T01:47:34.662Z,100.00
2019-02-17T01:50:39.809Z,100.00
2019-02-17T01:53:45.002Z,100.00
2019-02-17T01:56:50.168Z,100.00
2019-02-17T01:59:55.407Z,100.00
2019-02-17T02:03:00.640Z,100.00
2019-02-17T02:06:05.804Z,100.00
2019-02-17T02:09:11.331Z,100.00
2019-02-17T02:12:16.491Z,100.00
2019-02-17T02:15:21.619Z,100.00
2019-02-17T02:18:26.885Z,100.00
2019-02-17T02:21:31.982Z,100.00
2019-02-17T02:24:37.103Z,100.00
2019-02-17T02:27:42.245Z,100.00
2019-02-17T02:30:47.422Z,100.00
2019-02-17T02:33:52.630Z,100.00
2019-02-17T02:36:57.785Z,100.00
2019-02-17T02:40:02.973Z,100.00
2019-02-17T02:43:08.083Z,100.00
2019-02-17T02:46:13.187Z,100.00
2019-02-17T02:49:18.427Z,100.00
2019-02-17T02:52:23.604Z,100.00
2019-02-17T02:55:28.864Z,100.00
2019-02-17T02:58:34.024Z,100.00
2019-02-17T03:01:39.198Z,100.00
2019-02-17T03:04:44.373Z,100.00
2019-02-17T03:07:49.562Z,100.00
2019-02-17T03:10:54.650Z,100.00
2019-02-17T03:13:59.730Z,100.00
2019-02-17T03:17:04.847Z,100.00
2019-02-17T03:20:10.395Z,100.00
2019-02-17T03:23:15.556Z,100.00
2019-02-17T03:26:20.692Z,100.00
2019-02-17T03:29:25.874Z,100.00
2019-02-17T03:32:31.082Z,100.00
2019-02-17T03:35:36.325Z,100.00
2019-02-17T03:38:41.541Z,100.00
2019-02-17T03:41:46.655Z,100.00
2019-02-17T03:44:51.829Z,100.00
2019-02-17T03:47:57.011Z,100.00
2019-02-17T03:51:02.160Z,100.00
2019-02-17T03:54:07.308Z,100.00
2019-02-17T03:57:12.581Z,100.00
2019-02-17T04:00:17.775Z,100.00
2019-02-17T04:03:22.932Z,100.00
2019-02-17T04:06:28.112Z,100.00
2019-02-17T04:09:33.269Z,100.00
2019-02-17T04:12:38.418Z,100.00
2019-02-17T04:15:43.573Z,100.00
2019-02-17T04:18:48.721Z,100.00
2019-02-17T04:21:53.940Z,100.00
2019-02-17T04:24:59.084Z,100.00
2019-02-17T04:28:04.242Z,100.00
2019-02-17T04:31:09.391Z,100.00
2019-02-17T04:34:14.627Z,100.00
2019-02-17T04:37:19.793Z,100.00
2019-02-17T04:40:24.938Z,100.00
2019-02-17T04:43:30.062Z,100.00
2019-02-17T04:46:35.193Z,100.00
2019-02-17T04:49:40.354Z,100.00
2019-02-17T04:52:45.488Z,100.00
2019-02-17T04:55:50.655Z,100.00
2019-02-17T04:58:55.851Z,100.00
2019-02-17T05:02:01.014Z,100.00
2019-02-17T05:05:06.358Z,100.00
2019-02-17T05:08:11.487Z,100.00
2019-02-17T05:11:16.630Z,100.00
2019-02-17T05:14:21.747Z,100.00
2019-02-17T05:17:26.904Z,100.00
2019-02-17T05:20:32.080Z,100.00
2019-02-17T05:23:37.208Z,100.00
2019-02-17T05:26:42.385Z,100.00
2019-02-17T05:29:47.521Z,100.00
2019-02-17T05:32:54.276Z,100.00
2019-02-17T05:36:01.767Z,100.00
2019-02-17T05:39:07.230Z,100.00
2019-02-17T05:42:12.345Z,100.00
2019-02-17T05:45:17.500Z,100.00
2019-02-17T05:48:22.682Z,100.00
2019-02-17T05:51:27.986Z,100.00
2019-02-17T05:54:33.173Z,100.00
2019-02-17T05:57:38.353Z,100.00
2019-02-17T06:00:43.500Z,100.00
2019-02-17T06:03:48.628Z,100.00
2019-02-17T06:06:53.768Z,100.00
2019-02-17T06:09:58.887Z,100.00
2019-02-17T06:13:04.127Z,100.00
2019-02-17T06:16:09.283Z,100.00
2019-02-17T06:19:14.495Z,100.00
2019-02-17T06:22:19.641Z,100.00
2019-02-17T06:25:24.933Z,100.00
2019-02-17T06:28:31.318Z,100.00
2019-02-17T06:31:36.524Z,100.00
2019-02-17T06:34:41.666Z,100.00
2019-02-17T06:37:46.915Z,100.00
2019-02-17T06:40:52.457Z,100.00
2019-02-17T06:43:57.682Z,100.00
2019-02-17T06:47:05.644Z,100.00
2019-02-17T06:50:11.248Z,100.00
2019-02-17T06:53:16.422Z,100.00
2019-02-17T06:56:27.682Z,100.00
2019-02-17T06:59:32.775Z,100.00
2019-02-17T07:02:37.936Z,100.00
2019-02-17T07:05:54.243Z,100.00
2019-02-17T07:08:59.440Z,100.00
2019-02-17T07:12:04.636Z,100.00
2019-02-17T07:15:09.812Z,100.00
2019-02-17T07:18:16.110Z,100.00
2019-02-17T07:21:21.246Z,100.00
2019-02-17T07:24:26.393Z,100.00
2019-02-17T07:27:32.830Z,100.00
2019-02-17T07:30:37.961Z,100.00
2019-02-17T07:33:43.157Z,100.00
2019-02-17T07:36:48.386Z,100.00
2019-02-17T07:39:53.613Z,100.00
2019-02-17T07:42:58.740Z,100.00
2019-02-17T07:46:03.945Z,100.00
2019-02-17T07:49:09.068Z,100.00
2019-02-17T07:52:14.423Z,100.00
2019-02-17T07:55:19.663Z,100.00
2019-02-17T07:58:24.906Z,100.00
2019-02-17T08:01:30.016Z,100.00
2019-02-17T08:04:35.388Z,100.00
2019-02-17T08:07:40.567Z,99.64
2019-02-17T08:10:45.798Z,99.09
2019-02-17T08:13:51.060Z,98.77
2019-02-17T08:16:56.216Z,98.53
2019-02-17T08:20:01.570Z,98.06
2019-02-17T08:23:06.715Z,98.08
2019-02-17T08:26:11.856Z,98.34
2019-02-17T08:29:16.992Z,97.96
2019-02-17T08:32:23.223Z,98.14
2019-02-17T08:35:28.446Z,97.21
2019-02-17T08:38:33.632Z,96.87
2019-02-17T08:41:40.253Z,96.87
2019-02-17T08:44:45.716Z,96.94
2019-02-17T08:47:50.916Z,95.89
2019-02-17T08:50:56.129Z,94.64
2019-02-17T08:54:01.316Z,94.92
2019-02-17T08:57:06.478Z,94.81
2019-02-17T09:00:12.687Z,94.14
2019-02-17T09:03:17.852Z,93.79
2019-02-17T09:06:23.134Z,92.40
2019-02-17T09:09:28.270Z,91.54
2019-02-17T09:12:33.441Z,90.26
2019-02-17T09:15:38.651Z,90.15
2019-02-17T09:18:43.876Z,89.56
2019-02-17T09:21:49.026Z,87.74
2019-02-17T09:24:54.264Z,88.44
2019-02-17T09:27:59.384Z,86.17
2019-02-17T09:31:04.599Z,86.16
2019-02-17T09:34:09.792Z,85.92
2019-02-17T09:37:15.008Z,85.57
2019-02-17T09:40:20.161Z,84.04
2019-02-17T09:43:25.390Z,84.29
2019-02-17T09:46:30.563Z,84.04
2019-02-17T09:49:35.724Z,83.30
2019-02-17T09:52:41.013Z,82.86
2019-02-17T09:55:46.289Z,81.66
2019-02-17T09:58:53.338Z,79.93
2019-02-17T10:01:58.454Z,80.56
2019-02-17T10:05:03.619Z,79.90
2019-02-17T10:08:08.827Z,77.74
2019-02-17T10:11:13.974Z,76.68
2019-02-17T10:14:19.239Z,76.79
2019-02-17T10:17:24.397Z,75.32
2019-02-17T10:20:29.557Z,73.63
2019-02-17T10:23:34.703Z,72.31
2019-02-17T10:26:39.915Z,72.35
2019-02-17T10:29:45.166Z,71.12
2019-02-17T10:32:50.366Z,70.16
2019-02-17T10:35:55.535Z,69.84
2019-02-17T10:39:00.677Z,69.54
2019-02-17T10:42:07.427Z,68.45
2019-02-17T10:45:12.832Z,71.06
2019-02-17T10:48:18.087Z,66.46
2019-02-17T10:51:23.320Z,68.13
2019-02-17T10:54:28.553Z,68.42
2019-02-17T10:57:33.736Z,67.14
2019-02-17T11:00:38.889Z,65.18
2019-02-17T11:04:00.446Z,65.33
2019-02-17T11:07:05.588Z,65.78
2019-02-17T11:10:10.851Z,66.36
2019-02-17T11:13:16.035Z,65.66
2019-02-17T11:16:21.259Z,63.67
2019-02-17T11:19:26.462Z,62.59
2019-02-17T11:22:31.646Z,63.73
2019-02-17T11:25:36.802Z,62.83
2019-02-17T11:28:41.985Z,63.82
2019-02-17T11:31:47.178Z,62.87
2019-02-17T11:34:52.441Z,62.70
2019-02-17T11:37:58.588Z,60.85
2019-02-17T11:41:03.736Z,62.04
2019-02-17T11:44:08.898Z,61.12
2019-02-17T11:47:14.064Z,61.96
2019-02-17T11:50:19.176Z,61.73
2019-02-17T11:53:24.391Z,61.54
2019-02-17T11:56:29.693Z,61.11
2019-02-17T11:59:34.893Z,62.08
2019-02-17T12:02:40.087Z,61.19
2019-02-17T12:05:45.252Z,61.28
2019-02-17T12:08:50.531Z,62.10
2019-02-17T12:11:55.714Z,60.88
2019-02-17T12:15:01.028Z,60.32
2019-02-17T12:18:06.290Z,59.02
2019-02-17T12:21:31.957Z,58.74
2019-02-17T12:24:56.087Z,57.38
2019-02-17T12:28:08.128Z,57.04
2019-02-17T12:31:19.084Z,56.16
2019-02-17T12:34:24.506Z,57.97
2019-02-17T12:37:30.218Z,56.86
2019-02-17T12:40:35.534Z,56.98
2019-02-17T12:43:40.764Z,58.65
2019-02-17T12:46:46.243Z,58.75
2019-02-17T12:49:51.620Z,58.88
2019-02-17T12:52:56.947Z,58.14
2019-02-17T12:56:02.334Z,57.93
2019-02-17T12:59:07.631Z,56.86
2019-02-17T13:02:12.874Z,57.13
2019-02-17T13:05:18.074Z,56.90
2019-02-17T13:08:23.413Z,57.34
2019-02-17T13:11:28.683Z,57.09
2019-02-17T13:14:33.864Z,56.67
2019-02-17T13:17:39.071Z,56.16
2019-02-17T13:20:44.214Z,55.86
2019-02-17T13:23:49.396Z,56.60
2019-02-17T13:26:54.572Z,57.10
2019-02-17T13:29:59.777Z,56.04
2019-02-17T13:33:05.297Z,55.28
2019-02-17T13:36:10.561Z,53.56
2019-02-17T13:39:15.829Z,54.69
2019-02-17T13:42:21.031Z,55.00
2019-02-17T13:45:26.241Z,55.08
2019-02-17T13:48:32.864Z,55.28
2019-02-17T13:51:38.018Z,55.06
2019-02-17T13:54:43.298Z,54.20
2019-02-17T13:57:48.465Z,54.66
2019-02-17T14:00:53.702Z,55.11
2019-02-17T14:03:58.849Z,54.02
2019-02-17T14:07:04.034Z,53.26
2019-02-17T14:10:10.228Z,53.91
2019-02-17T14:13:15.377Z,53.13
2019-02-17T14:16:20.547Z,54.23
2019-02-17T14:19:25.687Z,53.47
2019-02-17T14:22:30.883Z,53.14
2019-02-17T14:25:36.063Z,52.30
2019-02-17T14:28:41.250Z,53.90
2019-02-17T14:31:46.437Z,53.59
2019-02-17T14:34:51.557Z,54.72
2019-02-17T14:37:56.733Z,54.78
2019-02-17T14:41:01.893Z,54.96
2019-02-17T14:44:07.106Z,55.40
2019-02-17T14:47:12.349Z,54.25
2019-02-17T14:50:17.583Z,54.58
2019-02-17T14:53:22.719Z,54.48
2019-02-17T14:56:29.413Z,54.77
2019-02-17T14:59:34.648Z,55.07
2019-02-17T15:02:39.838Z,55.52
2019-02-17T15:05:44.997Z,56.69
2019-02-17T15:08:51.202Z,57.65
2019-02-17T15:11:56.346Z,57.60
2019-02-17T15:15:01.529Z,58.70
2019-02-17T15:18:08.174Z,59.46
2019-02-17T15:21:13.305Z,59.81
2019-02-17T15:24:18.419Z,60.34
2019-02-17T15:27:23.623Z,61.32
2019-02-17T15:30:28.782Z,61.66
2019-02-17T15:33:34.026Z,61.73
2019-02-17T15:36:39.175Z,62.66
2019-02-17T15:39:44.367Z,63.60
2019-02-17T15:42:49.494Z,64.21
2019-02-17T15:45:54.726Z,64.92
2019-02-17T15:48:59.880Z,64.96
2019-02-17T15:52:05.159Z,65.79
2019-02-17T15:55:10.413Z,66.06
2019-02-17T15:58:15.595Z,66.37
2019-02-17T16:01:20.779Z,66.69
2019-02-17T16:04:28.472Z,66.60
2019-02-17T16:07:32.796Z,67.27
2019-02-17T16:10:37.980Z,68.49
2019-02-17T16:13:43.116Z,69.23
2019-02-17T16:16:48.339Z,69.70
2019-02-17T16:19:53.525Z,70.53
2019-02-17T16:22:58.818Z,70.76
2019-02-17T16:26:03.960Z,72.48
2019-02-17T16:29:09.223Z,73.89
2019-02-17T16:32:14.355Z,75.16
2019-02-17T16:35:19.498Z,76.02
2019-02-17T16:38:24.924Z,76.93
2019-02-17T16:41:30.105Z,78.04
2019-02-17T16:44:36.253Z,79.10
2019-02-17T16:47:41.615Z,79.66
2019-02-17T16:50:46.782Z,80.72
2019-02-17T16:53:52.041Z,80.64
2019-02-17T16:56:57.216Z,81.58
2019-02-17T17:00:02.403Z,82.47
2019-02-17T17:03:07.838Z,82.98
2019-02-17T17:06:14.818Z,83.49
2019-02-17T17:09:20.006Z,84.35
2019-02-17T17:12:25.245Z,85.19
2019-02-17T17:15:30.444Z,86.30
2019-02-17T17:18:35.654Z,86.93
2019-02-17T17:21:40.827Z,87.20
2019-02-17T17:24:46.045Z,87.45
2019-02-17T17:27:58.016Z,88.44
2019-02-17T17:31:03.147Z,88.84
2019-02-17T17:34:08.488Z,88.54
2019-02-17T17:37:13.664Z,88.06
2019-02-17T17:40:18.829Z,88.16
2019-02-17T17:43:24.198Z,88.88
2019-02-17T17:46:29.440Z,90.08
2019-02-17T17:49:34.651Z,90.67
2019-02-17T17:52:39.812Z,91.84
2019-02-17T17:55:44.952Z,92.46
2019-02-17T17:58:50.186Z,92.46
2019-02-17T18:01:55.391Z,92.79
2019-02-17T18:05:08.842Z,93.20
2019-02-17T18:08:09.266Z,93.32
2019-02-17T18:11:14.534Z,93.59
2019-02-17T18:14:19.812Z,93.96
2019-02-17T18:17:24.959Z,94.17
2019-02-17T18:20:30.177Z,94.62
2019-02-17T18:23:35.487Z,94.79
2019-02-17T18:26:40.649Z,95.45
2019-02-17T18:29:45.907Z,95.93
2019-02-17T18:32:51.239Z,96.03
2019-02-17T18:35:56.477Z,96.14
2019-02-17T18:39:01.739Z,96.38
2019-02-17T18:42:08.762Z,96.56
2019-02-17T18:45:13.930Z,96.92
2019-02-17T18:48:19.176Z,97.33
2019-02-17T18:51:24.493Z,98.01
2019-02-17T18:54:30.806Z,97.90
2019-02-17T18:57:36.008Z,98.07
2019-02-17T19:00:41.301Z,98.27
2019-02-17T19:03:46.591Z,98.82
2019-02-17T19:06:51.807Z,98.66
2019-02-17T19:09:57.075Z,98.79
2019-02-17T19:13:02.295Z,98.97
2019-02-17T19:16:07.696Z,99.19
2019-02-17T19:19:13.109Z,99.25
2019-02-17T19:22:18.308Z,99.58
2019-02-17T19:25:23.515Z,99.70
2019-02-17T19:28:28.853Z,99.79
2019-02-17T19:31:36.771Z,100.00
2019-02-17T19:34:41.859Z,100.00
2019-02-17T19:37:47.002Z,100.00
2019-02-17T19:40:52.138Z,100.00
2019-02-17T19:43:57.414Z,100.00
2019-02-17T19:47:02.621Z,100.00
2019-02-17T19:50:09.022Z,100.00
2019-02-17T19:53:14.318Z,100.00
2019-02-17T19:56:19.512Z,100.00
2019-02-17T19:59:24.713Z,100.00
2019-02-17T20:02:45.556Z,100.00
2019-02-17T20:05:54.454Z,100.00
2019-02-17T20:08:59.620Z,100.00
2019-02-17T20:12:04.751Z,100.00
2019-02-17T20:15:09.952Z,100.00
2019-02-17T20:18:15.212Z,100.00
2019-02-17T20:21:20.723Z,100.00
2019-02-17T20:24:25.991Z,100.00
2019-02-17T20:27:31.271Z,100.00
2019-02-17T20:30:36.485Z,100.00
2019-02-17T20:33:41.711Z,100.00
2019-02-17T20:36:46.854Z,100.00
2019-02-17T20:39:52.120Z,100.00
2019-02-17T20:42:57.402Z,100.00
2019-02-17T20:46:02.654Z,100.00
2019-02-17T20:49:07.897Z,100.00
2019-02-17T20:52:13.167Z,100.00
2019-02-17T20:55:18.399Z,100.00
2019-02-17T20:58:23.535Z,100.00
2019-02-17T21:01:28.713Z,100.00
2019-02-17T21:04:33.841Z,100.00
2019-02-17T21:07:39.041Z,100.00
2019-02-17T21:10:44.260Z,100.00
2019-02-17T21:13:49.432Z,100.00
2019-02-17T21:16:54.588Z,100.00
2019-02-17T21:19:59.810Z,100.00
2019-02-17T21:23:05.033Z,100.00
2019-02-17T21:26:10.241Z,100.00
2019-02-17T21:29:15.338Z,100.00
2019-02-17T21:32:20.567Z,100.00
2019-02-17T21:35:25.786Z,100.00
2019-02-17T21:38:31.212Z,100.00
2019-02-17T21:41:36.385Z,100.00
2019-02-17T21:44:41.520Z,100.00
2019-02-17T21:47:46.707Z,100.00
2019-02-17T21:50:51.822Z,100.00
2019-02-17T21:53:58.115Z,100.00
2019-02-17T21:57:03.427Z,100.00
2019-02-17T22:00:10.722Z,100.00
2019-02-17T22:03:16.229Z,100.00
2019-02-17T22:06:21.431Z,100.00
2019-02-17T22:09:26.639Z,100.00
2019-02-17T22:12:31.774Z,100.00
2019-02-17T22:15:37.043Z,100.00
2019-02-17T22:18:42.161Z,100.00
2019-02-17T22:21:47.336Z,100.00
2019-02-17T22:24:53.092Z,100.00
2019-02-17T22:27:58.499Z,100.00
2019-02-17T22:31:03.770Z,100.00
2019-02-17T22:34:09.027Z,100.00
2019-02-17T22:37:14.197Z,100.00
2019-02-17T22:40:19.382Z,100.00
2019-02-17T22:43:24.520Z,100.00
2019-02-17T22:46:29.887Z,100.00
2019-02-17T22:49:35.065Z,100.00
2019-02-17T22:52:40.336Z,100.00
2019-02-17T22:55:45.599Z,100.00
2019-02-17T22:58:50.802Z,100.00
2019-02-17T23:01:56.367Z,100.00
2019-02-17T23:05:01.601Z,100.00
2019-02-17T23:08:07.292Z,100.00
2019-02-17T23:11:12.489Z,100.00
2019-02-17T23:14:17.831Z,100.00
2019-02-17T23:17:23.108Z,100.00
2019-02-17T23:20:28.350Z,100.00
2019-02-17T23:23:33.590Z,100.00
2019-02-17T23:26:38.857Z,100.00
2019-02-17T23:29:44.047Z,100.00
2019-02-17T23:32:49.306Z,100.00
2019-02-17T23:35:54.502Z,100.00
2019-02-17T23:39:01.959Z,100.00
2019-02-17T23:42:08.765Z,100.00
2019-02-17T23:45:14.031Z,100.00
2019-02-17T23:48:19.206Z,100.00
2019-02-17T23:51:24.428Z,100.00
2019-02-17T23:54:29.674Z,100.00
2019-02-17T23:57:34.866Z,100.00
